Time;durP1;ratioP1;P1;durP2;ratioP2;P2;SDS_P1;SDS_P2;PMS_P1;PMS_P2;Temp;Humidity;BMP_temperature;BMP_pressure;BME280_temperature;BME280_humidity;BME280_pressure;Samples;Min_cycle;Max_cycle;Signal;HPM_P1;HPM_P2
2023/01/15 00:00:16;;;;;;;6.40;1.70;;;7.90;92.30;;;;;;5052712;28;20381;-73
2023/01/15 00:02:41;;;;;;;9.30;2.60;;;7.80;94.70;;;;;;5053766;28;20562;-72
2023/01/15 00:05:07;;;;;;;9.63;2.00;;;7.80;94.40;;;;;;5053661;28;20463;-72
2023/01/15 00:07:32;;;;;;;10.13;1.90;;;7.70;95.70;;;;;;5054440;28;20388;-72
2023/01/15 00:09:58;;;;;;;6.20;1.80;;;7.70;97.50;;;;;;5054086;28;20381;-73
2023/01/15 00:12:24;;;;;;;9.27;2.20;;;7.80;97.90;;;;;;5053631;28;20439;-73
2023/01/15 00:14:49;;;;;;;8.00;1.70;;;7.70;99.30;;;;;;5053539;28;20924;-71
2023/01/15 00:17:15;;;;;;;11.77;2.67;;;7.70;98.60;;;;;;5053897;28;20412;-72
2023/01/15 00:19:40;;;;;;;9.20;1.77;;;7.70;99.90;;;;;;5054098;28;20377;-70
2023/01/15 00:22:06;;;;;;;9.10;2.00;;;7.70;99.90;;;;;;5055082;28;20893;-73
2023/01/15 00:30:00;;;;;;;6.13;2.13;;;7.70;99.90;;;;;;5063142;28;20453;-72
2023/01/15 00:32:28;;;;;;;7.30;1.80;;;7.70;99.90;;;;;;5053319;28;20881;-73
2023/01/15 00:34:54;;;;;;;4.40;1.60;;;7.70;99.90;;;;;;5053473;28;20428;-72
2023/01/15 00:37:20;;;;;;;6.60;1.80;;;7.80;99.90;;;;;;5053728;28;20854;-73
2023/01/15 00:39:45;;;;;;;9.57;1.70;;;7.70;97.70;;;;;;5053679;28;20396;-71
2023/01/15 00:42:11;;;;;;;5.63;2.20;;;7.80;95.40;;;;;;5053178;28;20378;-73
2023/01/15 00:44:37;;;;;;;5.00;1.30;;;7.90;90.30;;;;;;5053377;28;20442;-72
2023/01/15 00:47:03;;;;;;;4.00;1.80;;;7.90;74.20;;;;;;5053671;28;20754;-72
2023/01/15 00:49:28;;;;;;;4.97;1.70;;;7.80;80.40;;;;;;5054300;28;20403;-73
2023/01/15 00:51:54;;;;;;;4.65;1.50;;;7.80;84.30;;;;;;5057034;28;20760;-72
2023/01/15 00:54:19;;;;;;;4.57;1.90;;;7.90;82.10;;;;;;5059507;28;20408;-72
2023/01/15 00:56:45;;;;;;;1.50;0.90;;;7.90;82.40;;;;;;5057611;28;20398;-72
2023/01/15 00:59:11;;;;;;;3.67;1.25;;;7.90;77.60;;;;;;5059093;28;20866;-72
2023/01/15 01:01:37;;;;;;;3.38;1.02;;;7.90;72.40;;;;;;5063406;28;20385;-72
2023/01/15 01:04:03;;;;;;;3.70;1.00;;;7.90;71.50;;;;;;5055531;28;20381;-72
2023/01/15 01:06:29;;;;;;;3.53;1.37;;;8.00;67.30;;;;;;5052565;28;20436;-71
2023/01/15 01:08:54;;;;;;;4.20;1.20;;;8.10;68.40;;;;;;5052491;28;20389;-71
2023/01/15 01:11:25;;;;;;;3.10;1.30;;;8.10;68.90;;;;;;5052238;28;20385;-71
2023/01/15 01:13:51;;;;;;;5.50;0.97;;;8.00;68.40;;;;;;5052205;28;20573;-71
2023/01/15 01:16:29;;;;;;;7.70;1.20;;;8.00;67.40;;;;;;5052242;28;20428;-71
2023/01/15 01:18:56;;;;;;;3.33;1.08;;;8.00;66.70;;;;;;5053035;28;20373;-71
2023/01/15 01:21:21;;;;;;;3.17;1.30;;;8.00;65.30;;;;;;5053083;28;20754;-71
2023/01/15 01:23:47;;;;;;;4.28;0.98;;;8.00;66.40;;;;;;5052477;28;20377;-71
2023/01/15 01:26:13;;;;;;;4.15;1.10;;;7.90;66.20;;;;;;5052808;28;20516;-73
2023/01/15 01:28:40;;;;;;;4.50;1.20;;;7.90;66.20;;;;;;5051198;28;20397;-71
2023/01/15 01:31:07;;;;;;;2.90;1.10;;;7.90;64.70;;;;;;5051682;28;20399;-72
2023/01/15 01:33:33;;;;;;;3.55;0.90;;;7.90;66.40;;;;;;5033869;28;20397;-71
2023/01/15 01:35:59;;;;;;;1.73;0.98;;;7.90;64.30;;;;;;5052168;28;20472;-72
2023/01/15 01:38:24;;;;;;;4.18;1.05;;;7.90;65.00;;;;;;5051600;28;20401;-72
2023/01/15 01:40:50;;;;;;;6.07;1.30;;;7.80;65.00;;;;;;5051818;28;20377;-72
2023/01/15 01:43:23;;;;;;;2.97;1.23;;;7.80;64.50;;;;;;5034201;28;20390;-72
2023/01/15 01:45:49;;;;;;;4.43;1.27;;;7.80;61.80;;;;;;5051809;28;20424;-70
2023/01/15 01:48:17;;;;;;;4.00;1.30;;;7.80;62.20;;;;;;5051927;28;20420;-72
2023/01/15 01:50:44;;;;;;;3.03;1.00;;;7.80;61.80;;;;;;5051733;28;20472;-71
2023/01/15 01:53:15;;;;;;;2.03;1.08;;;7.80;61.90;;;;;;5052075;28;21017;-72
2023/01/15 01:55:41;;;;;;;2.47;1.00;;;7.80;57.80;;;;;;5051940;28;20534;-71
2023/01/15 01:58:08;;;;;;;3.80;0.80;;;7.90;55.30;;;;;;5051945;28;20925;-72
2023/01/15 02:00:37;;;;;;;5.30;1.07;;;7.90;56.00;;;;;;5051935;28;20382;-72
2023/01/15 02:03:06;;;;;;;3.70;1.10;;;7.90;55.20;;;;;;5051908;28;20374;-73
2023/01/15 02:05:36;;;;;;;2.83;0.90;;;7.80;56.50;;;;;;5052068;28;20427;-73
2023/01/15 02:08:02;;;;;;;1.70;0.90;;;7.80;56.20;;;;;;5052378;28;20389;-73
2023/01/15 02:10:27;;;;;;;4.18;1.10;;;7.90;54.60;;;;;;5052062;28;20740;-73
2023/01/15 02:13:19;;;;;;;4.47;1.10;;;7.90;54.80;;;;;;5051597;28;20459;-73
2023/01/15 02:15:49;;;;;;;2.50;1.00;;;7.90;52.10;;;;;;5050004;28;20424;-71
2023/01/15 02:18:30;;;;;;;3.57;1.00;;;7.90;53.70;;;;;;5051522;28;20388;-71
2023/01/15 02:21:05;;;;;;;3.50;0.90;;;7.90;52.70;;;;;;5052291;28;20719;-72
2023/01/15 02:23:37;;;;;;;2.97;1.05;;;7.90;52.90;;;;;;5057489;28;20388;-72
2023/01/15 02:26:43;;;;;;;2.60;1.30;;;8.00;53.80;;;;;;5065080;28;20411;-71
2023/01/15 02:29:16;;;;;;;4.43;1.02;;;7.90;54.20;;;;;;5055417;28;20476;-73
2023/01/15 02:31:48;;;;;;;3.10;1.02;;;7.90;54.20;;;;;;5052939;28;20482;-72
2023/01/15 02:34:36;;;;;;;4.80;1.10;;;7.90;55.50;;;;;;5053615;28;20496;-74
2023/01/15 02:37:11;;;;;;;2.50;1.20;;;7.90;55.60;;;;;;5035426;28;20393;-73
2023/01/15 02:39:41;;;;;;;2.47;0.80;;;7.90;55.00;;;;;;5052044;28;20800;-73
2023/01/15 02:42:09;;;;;;;2.28;1.10;;;7.90;55.60;;;;;;5051830;28;20393;-72
2023/01/15 02:44:40;;;;;;;3.47;1.13;;;7.90;55.60;;;;;;5051762;28;20793;-72
2023/01/15 02:47:08;;;;;;;5.87;1.10;;;7.90;56.80;;;;;;5051474;28;20385;-72
2023/01/15 02:49:35;;;;;;;3.83;1.02;;;7.90;56.70;;;;;;5051842;28;20778;-72
2023/01/15 02:52:08;;;;;;;4.63;1.13;;;7.90;56.80;;;;;;5054219;28;20758;-74
2023/01/15 02:54:41;;;;;;;3.13;1.17;;;7.90;57.10;;;;;;5054896;28;20404;-72
2023/01/15 02:57:10;;;;;;;4.75;1.30;;;7.80;57.40;;;;;;5055594;28;20405;-72
2023/01/15 02:59:40;;;;;;;3.30;1.00;;;7.90;57.10;;;;;;5062563;28;20385;-72
2023/01/15 03:02:11;;;;;;;4.95;1.25;;;7.80;57.80;;;;;;5064793;28;20441;-71
2023/01/15 03:04:54;;;;;;;3.60;1.30;;;7.90;57.70;;;;;;5054254;28;20381;-73
2023/01/15 03:07:26;;;;;;;4.65;1.23;;;7.90;57.50;;;;;;5054134;28;20417;-71
2023/01/15 03:09:54;;;;;;;3.50;0.83;;;7.90;56.70;;;;;;5053965;28;20385;-72
2023/01/15 03:13:01;;;;;;;4.43;1.15;;;7.90;57.10;;;;;;5053760;28;20392;-72
2023/01/15 03:18:17;;;;;;;4.07;1.33;;;7.80;59.00;;;;;;5039304;28;20429;-73
2023/01/15 03:20:46;;;;;;;6.78;1.20;;;7.80;58.50;;;;;;5053999;28;20394;-73
2023/01/15 03:23:15;;;;;;;3.67;1.08;;;7.80;59.00;;;;;;5053960;28;20385;-73
2023/01/15 03:25:46;;;;;;;1.65;1.10;;;7.70;59.40;;;;;;5054123;28;20403;-72
2023/01/15 03:28:14;;;;;;;3.30;1.05;;;7.70;59.70;;;;;;5054110;28;20397;-73
2023/01/15 03:30:40;;;;;;;3.10;1.10;;;7.70;59.90;;;;;;5053187;28;20389;-72
2023/01/15 03:33:10;;;;;;;4.80;1.40;;;7.80;57.70;;;;;;5054381;28;20420;-72
2023/01/15 03:35:44;;;;;;;6.03;1.15;;;7.80;58.40;;;;;;5054504;28;20405;-74
2023/01/15 03:38:12;;;;;;;5.88;1.45;;;7.80;58.10;;;;;;5055123;28;20399;-74
2023/01/15 03:40:49;;;;;;;5.25;1.52;;;7.90;57.90;;;;;;5056971;28;20813;-74
2023/01/15 03:46:11;;;;;;;6.07;1.20;;;7.80;57.20;;;;;;5057999;28;20404;-74
2023/01/15 03:48:48;;;;;;;3.30;1.30;;;7.80;58.10;;;;;;5057791;28;20749;-72
2023/01/15 03:51:32;;;;;;;4.37;1.43;;;7.80;58.90;;;;;;5058286;28;20397;-72
2023/01/15 03:54:00;;;;;;;7.60;1.48;;;7.70;59.40;;;;;;5057813;28;20408;-73
2023/01/15 03:56:41;;;;;;;9.33;1.63;;;7.70;58.60;;;;;;5054412;28;20415;-72
2023/01/15 03:59:17;;;;;;;8.87;1.40;;;7.70;59.80;;;;;;5035471;28;20394;-72
2023/01/15 04:01:45;;;;;;;5.43;1.20;;;7.80;59.10;;;;;;5052504;28;20391;-73
2023/01/15 04:04:13;;;;;;;4.75;1.40;;;7.80;59.00;;;;;;5053285;28;20439;-71
2023/01/15 04:06:40;;;;;;;9.23;1.70;;;7.80;59.60;;;;;;5053174;28;20467;-73
2023/01/15 04:09:08;;;;;;;11.85;1.60;;;7.80;59.00;;;;;;5052862;28;20393;-73
2023/01/15 04:11:34;;;;;;;5.20;1.40;;;7.90;58.00;;;;;;5052931;28;20897;-72
2023/01/15 04:14:00;;;;;;;6.40;1.53;;;7.80;58.00;;;;;;5052577;28;20401;-73
2023/01/15 04:16:29;;;;;;;6.20;1.50;;;7.80;59.10;;;;;;5052520;28;20386;-71
2023/01/15 04:18:55;;;;;;;5.03;1.30;;;7.80;59.40;;;;;;5052497;28;20385;-71
2023/01/15 04:21:21;;;;;;;9.90;1.80;;;7.70;59.10;;;;;;5052226;28;20374;-73
2023/01/15 04:23:46;;;;;;;9.20;1.60;;;7.70;58.80;;;;;;5052516;28;20842;-72
2023/01/15 04:26:13;;;;;;;9.90;2.03;;;7.70;58.60;;;;;;5052121;28;20841;-73
2023/01/15 04:28:39;;;;;;;6.53;1.70;;;7.70;58.20;;;;;;5034649;28;20405;-72
2023/01/15 04:31:04;;;;;;;7.10;1.55;;;7.70;57.60;;;;;;5052372;28;20867;-71
2023/01/15 04:33:30;;;;;;;5.95;1.60;;;7.70;57.30;;;;;;5052117;28;20883;-71
2023/01/15 04:36:02;;;;;;;8.25;1.23;;;7.70;57.80;;;;;;5052292;28;20831;-72
2023/01/15 04:38:28;;;;;;;6.85;1.42;;;7.70;57.40;;;;;;5052290;28;20966;-71
2023/01/15 04:46:23;;;;;;;10.00;1.77;;;7.70;58.10;;;;;;5052633;28;20388;-72
2023/01/15 04:48:49;;;;;;;6.32;1.60;;;7.70;58.20;;;;;;5052006;28;20420;-73
2023/01/15 04:51:14;;;;;;;6.00;1.47;;;7.70;58.00;;;;;;5051946;28;20479;-73
2023/01/15 04:53:40;;;;;;;7.60;1.60;;;7.70;57.30;;;;;;5052097;28;20878;-72
2023/01/15 04:56:06;;;;;;;7.47;1.60;;;7.80;57.60;;;;;;5052170;28;20450;-73
2023/01/15 04:58:33;;;;;;;9.38;1.60;;;7.80;56.50;;;;;;5053551;28;20746;-73
2023/01/15 05:00:59;;;;;;;6.88;1.60;;;7.80;56.70;;;;;;5060871;28;20393;-71
2023/01/15 05:03:26;;;;;;;9.27;1.90;;;7.70;58.00;;;;;;5069093;28;20396;-72
2023/01/15 05:05:52;;;;;;;8.50;1.80;;;7.80;57.60;;;;;;5061748;28;20854;-73
2023/01/15 05:08:17;;;;;;;10.47;1.80;;;7.80;57.90;;;;;;5053357;28;20381;-73
2023/01/15 05:10:43;;;;;;;9.20;1.90;;;7.80;57.80;;;;;;5052940;28;20922;-72
2023/01/15 05:13:08;;;;;;;9.43;2.30;;;7.70;58.60;;;;;;5052063;28;20434;-72
2023/01/15 05:15:34;;;;;;;8.90;2.37;;;7.70;58.00;;;;;;5033959;28;20429;-73
2023/01/15 05:18:00;;;;;;;7.30;1.90;;;7.80;57.10;;;;;;5051597;28;20528;-73
2023/01/15 05:20:25;;;;;;;8.17;2.27;;;7.70;58.70;;;;;;5051636;28;20522;-71
2023/01/15 05:22:51;;;;;;;8.50;2.10;;;7.70;58.70;;;;;;5051449;28;20417;-71
2023/01/15 05:25:16;;;;;;;9.20;2.10;;;7.80;57.80;;;;;;5051205;28;20457;-75
2023/01/15 05:27:42;;;;;;;9.77;2.00;;;7.70;58.90;;;;;;5052001;28;20485;-73
2023/01/15 05:30:08;;;;;;;10.70;2.20;;;7.70;59.00;;;;;;5052776;28;20389;-73
2023/01/15 05:32:34;;;;;;;7.63;2.00;;;7.70;59.80;;;;;;5067036;28;20445;-72
2023/01/15 05:34:59;;;;;;;8.35;2.10;;;7.70;60.60;;;;;;5062841;28;20408;-71
2023/01/15 05:37:25;;;;;;;9.95;2.20;;;7.60;60.90;;;;;;5051289;28;20806;-71
2023/01/15 05:39:50;;;;;;;7.85;1.77;;;7.70;60.20;;;;;;5051331;28;20716;-74
2023/01/15 05:42:16;;;;;;;10.43;2.70;;;7.70;59.50;;;;;;5050750;28;20377;-72
2023/01/15 05:44:41;;;;;;;7.27;2.00;;;7.70;60.80;;;;;;5050869;28;20436;-71
2023/01/15 05:47:09;;;;;;;12.83;2.30;;;7.70;60.60;;;;;;5050883;28;20476;-72
2023/01/15 05:49:34;;;;;;;14.43;2.50;;;7.70;60.60;;;;;;5051074;28;20390;-72
2023/01/15 05:52:01;;;;;;;7.50;2.00;;;7.70;58.30;;;;;;5033009;28;20400;-72
2023/01/15 05:54:29;;;;;;;10.73;1.90;;;7.80;58.40;;;;;;5032853;28;20523;-71
2023/01/15 05:56:55;;;;;;;6.60;1.80;;;7.80;57.40;;;;;;5050736;28;20389;-72
2023/01/15 05:59:23;;;;;;;6.70;1.73;;;7.80;57.30;;;;;;5051062;28;20382;-72
2023/01/15 06:01:49;;;;;;;11.90;2.47;;;7.80;56.60;;;;;;5050401;28;20373;-72
2023/01/15 06:04:19;;;;;;;11.70;2.10;;;7.80;55.90;;;;;;5051016;28;20465;-71
2023/01/15 06:06:45;;;;;;;7.78;2.22;;;7.80;55.60;;;;;;5050678;28;20703;-72
2023/01/15 06:09:11;;;;;;;11.23;2.20;;;7.90;55.70;;;;;;5050752;28;20824;-73
2023/01/15 06:11:36;;;;;;;11.80;2.05;;;7.80;56.20;;;;;;5050465;28;20443;-73
2023/01/15 06:14:02;;;;;;;7.45;1.92;;;7.90;54.60;;;;;;5050838;28;20397;-72
2023/01/15 06:16:28;;;;;;;8.23;1.77;;;7.80;55.50;;;;;;5050490;28;20394;-72
2023/01/15 06:18:53;;;;;;;8.52;2.20;;;7.90;55.30;;;;;;5050715;28;20397;-72
2023/01/15 06:21:19;;;;;;;10.57;2.30;;;7.80;56.10;;;;;;5051001;28;20411;-73
2023/01/15 06:23:45;;;;;;;14.32;1.80;;;7.90;55.60;;;;;;5052384;28;20389;-72
2023/01/15 06:26:16;;;;;;;8.15;2.38;;;7.90;55.70;;;;;;5054289;28;20389;-73
2023/01/15 06:28:43;;;;;;;10.52;1.80;;;7.80;56.10;;;;;;5039713;28;20393;-73
2023/01/15 06:31:11;;;;;;;10.88;1.67;;;7.90;56.60;;;;;;5057813;28;20411;-72
2023/01/15 06:33:37;;;;;;;10.47;1.70;;;7.90;56.40;;;;;;5057527;28;20393;-72
2023/01/15 06:36:04;;;;;;;8.10;1.85;;;7.90;56.50;;;;;;5057559;28;20440;-72
2023/01/15 06:38:30;;;;;;;5.82;1.67;;;8.00;55.60;;;;;;5059948;28;20387;-72
2023/01/15 06:41:03;;;;;;;13.52;1.73;;;7.90;56.70;;;;;;5058082;28;20888;-73
2023/01/15 06:48:58;;;;;;;7.90;1.90;;;7.80;57.60;;;;;;5063094;28;20384;-71
2023/01/15 06:51:24;;;;;;;9.73;1.90;;;7.70;58.30;;;;;;5053959;28;20381;-71
2023/01/15 06:53:50;;;;;;;8.77;1.80;;;7.70;57.70;;;;;;5054261;28;20485;-71
2023/01/15 06:56:16;;;;;;;9.15;2.05;;;7.80;56.20;;;;;;5054111;28;20439;-71
2023/01/15 06:58:42;;;;;;;8.40;1.67;;;7.70;57.20;;;;;;5054387;28;20417;-73
2023/01/15 07:01:12;;;;;;;8.60;1.87;;;7.70;57.90;;;;;;5053962;28;20373;-72
2023/01/15 07:03:38;;;;;;;8.05;1.83;;;7.70;57.90;;;;;;5054188;28;20427;-72
2023/01/15 07:06:08;;;;;;;7.72;2.08;;;7.70;58.20;;;;;;5054324;28;20385;-72
2023/01/15 07:08:34;;;;;;;4.20;1.73;;;7.70;57.50;;;;;;5054464;28;20389;-72
2023/01/15 07:11:04;;;;;;;19.20;1.95;;;7.60;58.60;;;;;;5054153;28;20382;-72
2023/01/15 07:13:30;;;;;;;7.43;2.00;;;7.60;57.50;;;;;;5054063;28;20446;-72
2023/01/15 07:15:58;;;;;;;8.30;1.93;;;7.60;58.20;;;;;;5053666;28;20381;-72
2023/01/15 07:18:23;;;;;;;8.10;2.50;;;7.60;57.80;;;;;;5054095;28;20385;-70
2023/01/15 07:20:53;;;;;;;8.32;2.05;;;7.60;58.00;;;;;;5052502;28;20874;-72
2023/01/15 07:23:20;;;;;;;11.43;2.00;;;7.60;56.80;;;;;;5036395;28;20389;-72
2023/01/15 07:25:45;;;;;;;3.78;1.70;;;7.60;56.60;;;;;;5036126;28;20389;-74
2023/01/15 07:28:13;;;;;;;5.13;1.70;;;7.60;57.10;;;;;;5053799;28;21464;-71
2023/01/15 07:30:38;;;;;;;8.57;1.58;;;7.60;57.00;;;;;;5054014;28;20476;-71
2023/01/15 07:33:04;;;;;;;7.80;1.83;;;7.60;57.00;;;;;;5056913;28;20404;-72
2023/01/15 07:35:29;;;;;;;7.25;2.10;;;7.60;57.10;;;;;;5056292;28;20412;-73
2023/01/15 07:37:55;;;;;;;7.82;1.60;;;7.50;57.70;;;;;;5056990;28;20446;-73
2023/01/15 07:40:21;;;;;;;8.37;1.67;;;7.50;57.10;;;;;;5055428;28;20870;-73
2023/01/15 07:50:59;;;;;;;9.23;1.90;;;7.50;57.70;;;;;;5053270;28;20381;-73
2023/01/15 07:53:25;;;;;;;8.68;2.15;;;7.50;58.00;;;;;;5053389;28;20395;-72
2023/01/15 07:55:51;;;;;;;10.93;2.03;;;7.50;57.50;;;;;;5053499;28;20844;-73
2023/01/15 07:58:16;;;;;;;5.55;1.40;;;7.50;57.80;;;;;;5052268;28;20404;-71
2023/01/15 08:00:42;;;;;;;6.97;1.77;;;7.50;57.40;;;;;;5053898;28;20374;-72
2023/01/15 08:03:08;;;;;;;6.77;1.70;;;7.60;57.80;;;;;;5054670;28;20894;-70
2023/01/15 08:05:33;;;;;;;8.13;1.83;;;7.60;56.60;;;;;;5060468;28;20805;-72
2023/01/15 08:07:59;;;;;;;8.60;1.50;;;7.60;56.30;;;;;;5058465;28;20389;-73
2023/01/15 08:10:24;;;;;;;7.97;1.30;;;7.70;56.50;;;;;;5053858;28;20389;-72
2023/01/15 08:15:38;;;;;;;7.85;1.45;;;7.70;54.10;;;;;;5052872;28;20415;-73
2023/01/15 08:18:04;;;;;;;19.53;2.00;;;7.70;55.00;;;;;;5053219;28;20555;-72
2023/01/15 08:20:30;;;;;;;10.95;1.60;;;7.70;55.60;;;;;;5052817;28;20384;-74
2023/01/15 08:22:55;;;;;;;8.57;1.90;;;7.70;56.10;;;;;;5052607;28;20825;-72
2023/01/15 08:25:23;;;;;;;5.82;1.40;;;7.60;54.20;;;;;;5052573;28;20392;-73
2023/01/15 08:27:50;;;;;;;7.72;1.50;;;7.70;54.10;;;;;;5052905;28;21033;-72
2023/01/15 08:30:19;;;;;;;7.00;1.50;;;7.60;53.60;;;;;;5052442;28;20748;-71
2023/01/15 08:32:45;;;;;;;5.72;1.30;;;7.60;52.00;;;;;;5052559;28;20377;-73
2023/01/15 08:35:11;;;;;;;5.10;1.27;;;7.60;51.20;;;;;;5052473;28;20463;-71
2023/01/15 08:37:38;;;;;;;10.13;1.70;;;7.50;52.80;;;;;;5034617;28;20397;-74
2023/01/15 08:40:04;;;;;;;5.70;1.52;;;7.50;53.40;;;;;;5052446;28;20468;-73
2023/01/15 08:42:30;;;;;;;8.13;1.70;;;7.50;51.30;;;;;;5052118;28;20401;-74
2023/01/15 08:44:55;;;;;;;5.90;1.50;;;7.50;51.90;;;;;;5052371;28;20388;-72
2023/01/15 08:47:21;;;;;;;6.00;1.60;;;7.40;52.10;;;;;;5052351;28;20473;-72
2023/01/15 08:49:47;;;;;;;4.43;1.20;;;7.40;51.40;;;;;;5052417;28;20753;-72
2023/01/15 08:52:13;;;;;;;5.57;1.20;;;7.40;50.20;;;;;;5052489;28;20390;-73
2023/01/15 08:54:39;;;;;;;4.65;1.20;;;7.30;49.80;;;;;;5052571;28;20401;-72
2023/01/15 08:57:05;;;;;;;4.80;1.20;;;7.20;50.70;;;;;;5052191;28;20785;-73
2023/01/15 08:59:30;;;;;;;6.03;1.23;;;7.10;50.00;;;;;;5052050;28;20395;-73
2023/01/15 09:01:56;;;;;;;3.27;1.20;;;7.00;51.30;;;;;;5051798;28;20393;-73
2023/01/15 09:04:22;;;;;;;6.00;1.40;;;7.00;52.00;;;;;;5052137;28;20389;-72
2023/01/15 09:06:48;;;;;;;4.30;1.40;;;6.90;51.80;;;;;;5052120;28;20805;-72
2023/01/15 09:09:14;;;;;;;4.38;1.40;;;6.80;52.80;;;;;;5051770;28;20385;-72
2023/01/15 09:11:40;;;;;;;3.87;1.10;;;6.80;53.00;;;;;;5051961;28;20393;-73
2023/01/15 09:14:10;;;;;;;3.72;0.98;;;6.70;55.00;;;;;;5052407;28;20405;-73
2023/01/15 09:16:36;;;;;;;4.25;1.30;;;6.70;55.60;;;;;;5052386;28;20377;-73
2023/01/15 09:19:03;;;;;;;5.15;1.42;;;6.70;56.00;;;;;;5052955;28;20381;-72
2023/01/15 09:21:28;;;;;;;4.63;1.40;;;6.60;56.80;;;;;;5052184;28;20377;-74
2023/01/15 09:23:54;;;;;;;5.90;1.60;;;6.60;57.70;;;;;;5052158;28;20729;-73
2023/01/15 09:26:35;;;;;;;6.40;1.27;;;6.70;58.10;;;;;;5052107;28;20401;-73
2023/01/15 09:29:02;;;;;;;9.57;2.08;;;6.70;58.40;;;;;;5052820;28;20775;-72
2023/01/15 09:31:28;;;;;;;6.07;1.55;;;6.70;59.10;;;;;;5052638;28;20487;-74
2023/01/15 09:33:54;;;;;;;5.68;1.55;;;6.80;58.30;;;;;;5059669;28;20894;-70
2023/01/15 09:36:31;;;;;;;6.80;1.35;;;6.90;58.00;;;;;;5055616;28;20389;-72
2023/01/15 09:38:58;;;;;;;5.00;1.38;;;6.90;57.50;;;;;;5061859;28;20460;-74
2023/01/15 09:45:00;;;;;;;9.02;1.77;;;7.10;55.30;;;;;;5064493;28;20387;-74
2023/01/15 09:47:33;;;;;;;12.77;2.53;;;7.10;55.30;;;;;;5041016;28;20424;-74
2023/01/15 09:50:20;;;;;;;8.75;2.10;;;7.10;54.60;;;;;;5051637;28;20882;-73
2023/01/15 09:52:48;;;;;;;10.88;1.60;;;7.10;54.80;;;;;;5051034;28;20385;-74
2023/01/15 09:55:23;;;;;;;9.18;2.20;;;7.20;55.20;;;;;;5032945;28;20778;-72
2023/01/15 09:57:52;;;;;;;5.90;2.13;;;7.20;53.10;;;;;;5050987;28;20385;-73
2023/01/15 10:00:21;;;;;;;7.50;1.73;;;7.30;52.60;;;;;;5032202;28;20432;-72
2023/01/15 10:03:09;;;;;;;10.15;2.10;;;7.40;51.80;;;;;;5050373;28;20757;-73
2023/01/15 10:05:41;;;;;;;11.73;1.77;;;7.50;50.80;;;;;;5051090;28;20403;-74
2023/01/15 10:08:31;;;;;;;7.05;1.70;;;7.60;47.80;;;;;;5050796;28;20416;-71
2023/01/15 10:11:15;;;;;;;10.50;2.75;;;7.70;47.40;;;;;;5032544;28;20378;-74
2023/01/15 10:13:48;;;;;;;9.73;2.30;;;7.80;47.60;;;;;;5050640;28;20425;-74
2023/01/15 10:16:27;;;;;;;7.95;2.70;;;8.00;45.00;;;;;;5050976;28;20907;-75
2023/01/15 10:18:54;;;;;;;9.68;1.85;;;8.30;44.20;;;;;;5051653;28;20862;-72
2023/01/15 10:22:03;;;;;;;11.48;2.22;;;8.60;40.60;;;;;;5050845;28;20424;-73
2023/01/15 10:24:43;;;;;;;8.48;1.60;;;8.70;38.80;;;;;;5050917;28;20396;-72
2023/01/15 10:27:23;;;;;;;11.15;1.98;;;8.70;38.10;;;;;;5051202;28;20405;-73
2023/01/15 10:29:56;;;;;;;7.03;1.92;;;8.70;36.50;;;;;;5053821;28;20393;-73
2023/01/15 10:32:49;;;;;;;10.85;2.50;;;8.80;35.70;;;;;;5054457;28;20405;-74
2023/01/15 10:35:53;;;;;;;9.77;1.95;;;8.90;35.30;;;;;;5062069;28;20506;-73
2023/01/15 10:38:43;;;;;;;8.20;2.10;;;8.90;34.90;;;;;;5058754;28;20374;-72
2023/01/15 10:41:36;;;;;;;11.80;2.30;;;8.90;35.50;;;;;;5046498;28;20499;-74
2023/01/15 10:44:17;;;;;;;8.55;2.10;;;9.00;36.30;;;;;;5046683;28;20396;-74
2023/01/15 10:46:48;;;;;;;11.73;2.53;;;9.20;35.10;;;;;;5050808;28;20918;-76
2023/01/15 10:49:16;;;;;;;8.20;2.30;;;9.20;33.40;;;;;;5050960;28;20437;-73
2023/01/15 10:52:01;;;;;;;10.32;2.17;;;9.30;33.00;;;;;;5043639;28;20399;-74
2023/01/15 10:54:34;;;;;;;8.93;2.20;;;9.30;32.80;;;;;;5033355;28;20470;-72
2023/01/15 10:57:08;;;;;;;7.97;1.90;;;9.40;32.50;;;;;;5042716;28;20403;-72
2023/01/15 10:59:40;;;;;;;8.43;1.90;;;9.20;32.50;;;;;;5043442;28;20426;-75
2023/01/15 11:02:57;;;;;;;8.50;2.05;;;9.20;33.10;;;;;;5033043;28;20963;-73
2023/01/15 11:05:23;;;;;;;9.57;1.95;;;9.10;33.00;;;;;;5000796;28;20408;-74
2023/01/15 11:07:50;;;;;;;6.47;2.00;;;8.90;32.80;;;;;;5048230;28;20389;-75
2023/01/15 11:10:20;;;;;;;12.82;2.38;;;9.00;32.40;;;;;;5062851;28;20397;-73
2023/01/15 11:21:19;;;;;;;8.25;1.67;;;9.00;32.60;;;;;;5034704;28;20390;-75
2023/01/15 11:23:46;;;;;;;14.23;2.50;;;9.00;32.30;;;;;;5032316;28;20483;-75
2023/01/15 11:26:28;;;;;;;6.80;1.35;;;9.00;31.90;;;;;;5031339;28;20403;-74
2023/01/15 11:28:54;;;;;;;7.95;1.75;;;8.90;32.40;;;;;;5032825;28;20796;-75
2023/01/15 11:31:20;;;;;;;12.52;2.17;;;8.90;31.80;;;;;;5031972;28;20406;-74
2023/01/15 11:34:04;;;;;;;12.27;2.00;;;9.00;31.40;;;;;;5014280;28;20399;-75
2023/01/15 11:36:30;;;;;;;6.65;1.90;;;9.10;31.00;;;;;;5013993;28;20409;-72
2023/01/15 11:38:57;;;;;;;6.65;1.70;;;9.10;31.40;;;;;;5043527;28;20389;-76
2023/01/15 11:52:40;;;;;;;4.55;1.55;;;8.90;32.00;;;;;;5051781;28;20451;-74
2023/01/15 11:55:22;;;;;;;23.60;9.57;;;8.90;32.20;;;;;;5051415;28;20410;-74
2023/01/15 11:57:49;;;;;;;6.30;2.13;;;9.00;32.50;;;;;;5027120;28;20470;-75
2023/01/15 12:00:22;;;;;;;9.73;4.40;;;9.00;32.00;;;;;;5033067;28;20426;-74
2023/01/15 12:02:51;;;;;;;10.10;2.90;;;9.20;31.50;;;;;;5025873;28;20439;-76
2023/01/15 12:05:18;;;;;;;7.40;1.60;;;9.10;30.50;;;;;;5036204;28;20527;-74
2023/01/15 12:07:45;;;;;;;6.22;3.03;;;9.10;30.60;;;;;;5032183;28;20379;-74
2023/01/15 12:11:02;;;;;;;10.43;2.05;;;9.20;30.80;;;;;;5037613;28;20500;-74
2023/01/15 12:13:20;;;;;;;7.55;2.72;;;9.20;30.50;;;;;;5043369;28;20393;-74
2023/01/15 12:15:53;;;;;;;6.28;1.60;;;9.10;31.00;;;;;;5050273;28;20500;-74
2023/01/15 12:18:34;;;;;;;4.95;2.00;;;9.10;31.00;;;;;;5032099;28;20895;-73
2023/01/15 12:21:21;;;;;;;7.60;1.33;;;8.90;31.30;;;;;;5034141;28;20443;-76
2023/01/15 12:24:13;;;;;;;5.45;2.53;;;8.90;31.30;;;;;;5051144;28;20438;-75
2023/01/15 12:27:07;;;;;;;3.57;2.23;;;8.80;31.50;;;;;;5059068;28;20427;-74
2023/01/15 12:29:41;;;;;;;6.15;1.98;;;8.80;32.00;;;;;;5062503;28;20416;-72
2023/01/15 12:32:16;;;;;;;3.88;1.65;;;8.90;31.90;;;;;;5059646;28;20390;-76
2023/01/15 12:34:53;;;;;;;4.57;1.40;;;8.90;31.60;;;;;;5061377;28;20889;-74
2023/01/15 12:37:25;;;;;;;5.10;1.50;;;8.90;31.60;;;;;;5057723;28;20444;-75
2023/01/15 12:40:17;;;;;;;11.30;2.80;;;9.00;31.70;;;;;;5054139;28;20504;-76
2023/01/15 12:45:37;;;;;;;8.20;2.80;;;9.10;31.10;;;;;;5057555;28;20388;-75
2023/01/15 12:48:33;;;;;;;7.60;3.30;;;9.00;31.60;;;;;;5059310;28;20401;-74
2023/01/15 12:51:03;;;;;;;6.80;2.63;;;9.10;31.80;;;;;;5059985;28;20487;-75
2023/01/15 12:53:28;;;;;;;6.82;1.60;;;9.00;31.90;;;;;;5060630;28;20570;-75
2023/01/15 12:56:13;;;;;;;7.60;1.60;;;9.00;31.20;;;;;;5061286;28;20521;-75
2023/01/15 12:58:55;;;;;;;8.07;1.60;;;8.90;31.80;;;;;;5059669;28;20385;-75
2023/01/15 13:01:45;;;;;;;6.35;1.60;;;8.90;31.70;;;;;;5057415;28;20389;-74
2023/01/15 13:04:21;;;;;;;3.55;1.60;;;8.90;31.20;;;;;;5039471;28;20389;-74
2023/01/15 13:06:55;;;;;;;12.23;1.58;;;8.90;30.80;;;;;;5058815;28;20396;-75
2023/01/15 13:09:41;;;;;;;5.43;1.40;;;8.90;30.70;;;;;;5059236;28;20400;-74
2023/01/15 13:12:13;;;;;;;7.97;1.80;;;8.80;31.50;;;;;;5054576;28;20385;-74
2023/01/15 13:14:40;;;;;;;6.85;1.80;;;8.80;32.10;;;;;;5054726;28;20745;-73
2023/01/15 13:17:15;;;;;;;4.72;1.60;;;8.70;32.00;;;;;;5054343;28;20378;-73
2023/01/15 13:19:41;;;;;;;5.80;1.60;;;8.70;32.30;;;;;;5053618;28;20381;-74
2023/01/15 13:22:15;;;;;;;6.20;1.50;;;8.70;32.20;;;;;;5054471;28;20385;-73
2023/01/15 13:25:00;;;;;;;5.97;1.50;;;8.60;33.00;;;;;;5054356;28;20739;-74
2023/01/15 13:27:38;;;;;;;3.78;1.70;;;8.60;32.50;;;;;;5055386;28;20485;-74
2023/01/15 13:30:41;;;;;;;4.93;1.00;;;8.60;33.00;;;;;;5055716;28;20503;-73
2023/01/15 13:33:32;;;;;;;9.43;1.20;;;8.60;32.50;;;;;;5054067;28;20790;-73
2023/01/15 13:36:16;;;;;;;4.32;1.60;;;8.70;31.90;;;;;;5053207;28;20401;-75
2023/01/15 13:38:47;;;;;;;5.65;2.05;;;8.60;32.50;;;;;;5053916;28;20380;-74
2023/01/15 13:42:30;;;;;;;8.80;1.60;;;8.60;33.00;;;;;;5051501;28;20377;-73
2023/01/15 13:44:22;;;;;;;4.50;1.40;;;8.70;32.70;;;;;;5053426;28;20424;-76
2023/01/15 13:47:02;;;;;;;5.82;1.40;;;8.70;32.60;;;;;;5052931;28;20419;-73
2023/01/15 13:50:00;;;;;;;5.82;1.60;;;8.70;32.60;;;;;;5053343;28;20458;-73
2023/01/15 13:52:35;;;;;;;4.32;1.50;;;8.70;31.90;;;;;;5052191;28;20378;-73
2023/01/15 13:55:18;;;;;;;7.50;1.45;;;8.70;32.50;;;;;;5052684;28;20515;-74
2023/01/15 13:57:44;;;;;;;5.95;1.70;;;8.70;32.40;;;;;;5052810;28;20374;-74
2023/01/15 14:00:39;;;;;;;4.28;1.40;;;8.70;31.80;;;;;;5052064;28;20377;-74
2023/01/15 14:03:29;;;;;;;9.18;2.30;;;8.70;31.90;;;;;;5051474;28;20409;-74
2023/01/15 14:06:01;;;;;;;4.60;1.40;;;8.70;31.60;;;;;;5051848;28;20399;-73
2023/01/15 14:08:39;;;;;;;6.15;1.42;;;8.60;31.40;;;;;;5050815;28;20400;-74
2023/01/15 14:11:25;;;;;;;4.45;1.50;;;8.60;31.90;;;;;;5033072;28;20396;-74
2023/01/15 14:14:11;;;;;;;6.45;1.70;;;8.60;31.70;;;;;;5051689;28;20714;-74